Time;durP1;ratioP1;P1;durP2;ratioP2;P2;SDS_P1;SDS_P2;PMS_P1;PMS_P2;Temp;Humidity;BMP_temperature;BMP_pressure;BME280_temperature;BME280_humidity;BME280_pressure;Samples;Min_cycle;Max_cycle;Signal;HPM_P1;HPM_P2
2023/02/04 00:03:04;;;;;;;7.70;1.70;;;;;;;2.59;95.37;99517.72;129715;1294;24254;-84
2023/02/04 00:06:16;;;;;;;5.70;1.50;;;;;;;2.50;95.73;99521.62;130227;1298;22574;-83
2023/02/04 00:09:17;;;;;;;5.10;2.00;;;;;;;2.44;96.04;99522.23;130177;1296;24250;-83
2023/02/04 00:12:19;;;;;;;5.10;2.00;;;;;;;2.42;96.05;99522.98;130151;1294;22560;-83
2023/02/04 00:15:21;;;;;;;5.00;2.00;;;;;;;2.41;96.11;99528.76;130081;1298;23918;-82
2023/02/04 00:18:24;;;;;;;4.20;1.70;;;;;;;2.41;96.15;99536.61;130242;1291;22774;-84
2023/02/04 00:21:27;;;;;;;2.60;1.30;;;;;;;2.40;94.44;99542.62;130466;1298;23611;-83
2023/02/04 00:24:31;;;;;;;4.40;1.70;;;;;;;2.35;93.37;99552.66;130449;1298;25473;-84
2023/02/04 00:27:34;;;;;;;2.90;1.40;;;;;;;2.31;92.14;99561.95;130277;1294;24259;-83
2023/02/04 00:30:48;;;;;;;4.30;1.50;;;;;;;2.25;91.43;99559.96;130227;1294;22552;-83
2023/02/04 00:34:00;;;;;;;1.90;1.50;;;;;;;2.20;91.13;99554.11;130311;1291;24303;-83
2023/02/04 00:37:03;;;;;;;2.50;1.80;;;;;;;2.15;90.61;99561.35;130590;1294;22611;-83
2023/02/04 00:40:08;;;;;;;1.50;1.40;;;;;;;2.11;90.48;99573.86;130820;1292;23445;-83
2023/02/04 00:43:14;;;;;;;2.10;1.50;;;;;;;2.07;90.14;99575.03;130422;1291;24416;-84
2023/02/04 00:46:15;;;;;;;;;;;;;;;2.05;90.50;99583.75;130347;1295;23011;-85
2023/02/04 00:49:18;;;;;;;1.60;1.40;;;;;;;2.00;90.46;99586.25;130858;1295;22611;-84
2023/02/04 00:52:19;;;;;;;2.10;1.50;;;;;;;1.95;90.45;99596.50;130660;1289;25313;-83
2023/02/04 00:55:22;;;;;;;2.10;1.60;;;;;;;1.86;90.83;99604.88;130649;1290;22560;-83
2023/02/04 00:58:29;;;;;;;3.80;2.00;;;;;;;1.77;91.18;99609.23;130472;1286;22566;-86
2023/02/04 01:01:33;;;;;;;1.80;1.70;;;;;;;1.67;91.37;99613.70;130512;1285;22645;-83
2023/02/04 01:04:35;;;;;;;2.50;2.20;;;;;;;1.58;91.93;99629.73;130812;1294;22563;-83
2023/02/04 01:07:52;;;;;;;4.00;2.20;;;;;;;1.49;92.42;99630.08;130755;1290;23937;-82
2023/02/04 01:11:07;;;;;;;2.40;2.00;;;;;;;1.43;92.71;99640.21;130716;1295;22652;-84
2023/02/04 01:14:10;;;;;;;2.60;2.20;;;;;;;1.35;93.25;99644.47;130283;1294;25271;-83
2023/02/04 01:17:18;;;;;;;3.00;2.60;;;;;;;1.28;93.75;99656.00;130402;1295;22756;-82
2023/02/04 01:20:24;;;;;;;4.60;2.30;;;;;;;1.21;93.79;99668.52;130771;1288;25371;-83
2023/02/04 01:23:26;;;;;;;3.90;2.10;;;;;;;1.17;93.97;99669.91;130480;1295;24844;-84
2023/02/04 01:26:30;;;;;;;;;;;;;;;1.12;94.25;99671.51;130492;1295;22554;-83
2023/02/04 01:29:34;;;;;;;2.90;2.30;;;;;;;1.08;94.40;99680.88;130773;1290;26532;-81
2023/02/04 01:32:36;;;;;;;2.80;2.50;;;;;;;1.02;94.51;99691.56;130386;1294;25326;-83
2023/02/04 01:35:37;;;;;;;4.80;2.30;;;;;;;1.00;94.79;99697.47;130319;1295;22570;-83
2023/02/04 01:38:42;;;;;;;3.60;2.80;;;;;;;1.00;94.97;99707.13;130398;1286;22753;-83
2023/02/04 01:41:44;;;;;;;6.40;4.00;;;;;;;0.95;94.91;99726.11;130765;1285;22555;-82
2023/02/04 01:44:53;;;;;;;6.00;5.00;;;;;;;0.85;94.31;99757.61;130933;1296;23466;-82
2023/02/04 01:47:55;;;;;;;9.60;7.60;;;;;;;0.70;93.48;99801.77;130933;1286;22567;-82
2023/02/04 01:51:01;;;;;;;;;;;;;;;0.50;92.48;99821.33;130388;1294;26068;-82
2023/02/04 01:54:05;;;;;;;15.10;10.70;;;;;;;0.33;92.42;99843.23;130977;1292;22662;-83
2023/02/04 01:57:14;;;;;;;16.10;11.60;;;;;;;0.15;92.30;99867.77;130717;1286;22605;-84
2023/02/04 02:00:18;;;;;;;16.20;12.00;;;;;;;-0.01;92.47;99884.72;130383;1292;24365;-82
2023/02/04 02:03:20;;;;;;;17.00;12.30;;;;;;;-0.18;92.48;99905.15;130831;1286;25401;-82
2023/02/04 02:06:22;;;;;;;16.00;11.40;;;;;;;-0.28;92.64;99928.82;130688;1292;24362;-82
2023/02/04 02:09:25;;;;;;;16.60;12.20;;;;;;;-0.38;92.66;99946.02;130627;1293;24273;-84
2023/02/04 02:12:27;;;;;;;15.50;11.10;;;;;;;-0.47;92.93;99965.13;130644;1286;23550;-82
2023/02/04 02:15:28;;;;;;;19.40;13.20;;;;;;;-0.54;92.72;99987.52;130496;1291;24294;-83
2023/02/04 02:18:28;;;;;;;18.70;14.20;;;;;;;-0.60;92.75;99990.85;130770;1295;22596;-81
2023/02/04 02:21:49;;;;;;;19.80;14.10;;;;;;;-0.66;92.86;100023.53;130646;1293;22562;-82
2023/02/04 02:24:52;;;;;;;17.60;12.90;;;;;;;-0.71;92.69;100038.80;130506;1294;24276;-82
2023/02/04 02:27:57;;;;;;;17.50;12.00;;;;;;;-0.76;92.27;100055.95;130285;1288;22555;-83
2023/02/04 02:31:02;;;;;;;15.10;10.10;;;;;;;-0.78;91.76;100078.14;130434;1295;22678;-83
2023/02/04 02:34:04;;;;;;;15.80;10.90;;;;;;;-0.80;91.36;100106.79;130703;1292;22627;-82
2023/02/04 02:37:08;;;;;;;18.20;11.80;;;;;;;-0.82;91.90;100129.48;130960;1286;22598;-83
2023/02/04 02:40:11;;;;;;;16.20;11.20;;;;;;;-0.84;92.07;100137.92;130741;1294;22669;-82
2023/02/04 02:43:21;;;;;;;14.90;10.30;;;;;;;-0.85;91.80;100156.41;130465;1288;24444;-81
2023/02/04 02:46:23;;;;;;;13.50;9.50;;;;;;;-0.88;91.70;100168.91;130550;1292;25268;-83
2023/02/04 02:49:29;;;;;;;11.70;8.60;;;;;;;-0.90;91.05;100189.36;130678;1291;22586;-82
2023/02/04 02:52:30;;;;;;;14.70;9.20;;;;;;;-0.92;90.69;100224.86;130785;1288;24294;-82
2023/02/04 02:55:31;;;;;;;9.80;8.20;;;;;;;-0.93;90.89;100241.25;130451;1293;22559;-84
2023/02/04 02:58:37;;;;;;;10.80;7.30;;;;;;;-0.94;90.86;100257.30;130556;1293;25316;-82
2023/02/04 03:01:42;;;;;;;11.00;7.90;;;;;;;-0.96;90.59;100279.80;130818;1294;22597;-82
2023/02/04 03:04:53;;;;;;;8.40;6.60;;;;;;;-0.95;90.68;100300.79;130303;1292;22560;-82
2023/02/04 03:08:00;;;;;;;8.90;6.60;;;;;;;-0.95;90.43;100311.71;130761;1292;22646;-82
2023/02/04 03:11:04;;;;;;;7.50;5.50;;;;;;;-0.95;90.47;100329.23;130534;1292;22556;-83
2023/02/04 03:14:12;;;;;;;7.70;4.90;;;;;;;-0.96;90.25;100332.25;130808;1295;25394;-84
2023/02/04 03:17:21;;;;;;;6.90;4.80;;;;;;;-0.95;89.86;100365.71;130823;1289;22636;-82
2023/02/04 03:20:29;;;;;;;5.40;4.60;;;;;;;-0.95;89.92;100392.27;130616;1291;24399;-82
2023/02/04 03:23:32;;;;;;;6.20;3.80;;;;;;;-0.95;89.45;100408.99;130575;1286;25332;-82
2023/02/04 03:26:33;;;;;;;8.70;3.50;;;;;;;-0.97;88.90;100421.95;130769;1295;22795;-81
2023/02/04 03:29:46;;;;;;;3.70;3.30;;;;;;;-0.98;88.66;100448.88;130486;1289;22666;-82
2023/02/04 03:32:49;;;;;;;4.60;3.20;;;;;;;-1.01;88.94;100473.70;130742;1292;22570;-83
2023/02/04 03:35:51;;;;;;;3.80;3.30;;;;;;;-1.05;88.13;100493.38;130803;1292;24392;-84
2023/02/04 03:38:57;;;;;;;4.10;3.40;;;;;;;-1.08;88.02;100524.15;130829;1289;22672;-82
2023/02/04 03:42:02;;;;;;;4.70;3.40;;;;;;;-1.11;87.97;100541.46;130727;1292;22560;-84
2023/02/04 03:45:05;;;;;;;4.70;3.50;;;;;;;-1.16;87.48;100558.38;130851;1293;25335;-82
2023/02/04 03:48:08;;;;;;;7.20;4.40;;;;;;;-1.20;87.33;100573.54;130973;1295;25470;-84
2023/02/04 03:51:12;;;;;;;4.80;3.80;;;;;;;-1.24;87.47;100590.07;130485;1295;25334;-83
2023/02/04 03:54:16;;;;;;;5.50;4.10;;;;;;;-1.26;87.28;100606.65;130889;1295;26045;-82
2023/02/04 03:57:21;;;;;;;4.80;3.90;;;;;;;-1.27;87.11;100619.92;130794;1292;23380;-82
2023/02/04 04:00:22;;;;;;;6.80;4.60;;;;;;;-1.28;87.07;100638.73;130694;1292;25271;-82
2023/02/04 04:03:26;;;;;;;6.60;5.00;;;;;;;-1.30;87.48;100658.77;130850;1288;22570;-84
2023/02/04 04:06:27;;;;;;;;;;;;;;;-1.32;86.91;100663.39;130511;1292;22562;-82
2023/02/04 04:09:30;;;;;;;7.50;4.70;;;;;;;-1.34;87.05;100670.77;131115;1285;22623;-83
2023/02/04 04:12:31;;;;;;;7.10;4.80;;;;;;;-1.34;86.90;100688.13;130342;1292;22724;-84
2023/02/04 04:15:35;;;;;;;7.80;5.10;;;;;;;-1.34;86.59;100697.34;130489;1292;25281;-82
2023/02/04 04:18:36;;;;;;;7.60;5.20;;;;;;;-1.34;86.22;100705.66;130703;1296;24388;-84
2023/02/04 04:21:36;;;;;;;;;;;;;;;-1.34;86.52;100715.89;130430;1294;22554;-84
2023/02/04 04:24:37;;;;;;;6.60;5.10;;;;;;;-1.34;86.48;100729.09;130888;1278;24415;-83
2023/02/04 04:27:39;;;;;;;6.90;5.50;;;;;;;-1.33;86.34;100743.64;130375;1295;22578;-81
2023/02/04 04:30:41;;;;;;;12.20;6.50;;;;;;;-1.33;85.81;100754.92;130467;1294;22672;-83
2023/02/04 04:33:44;;;;;;;8.60;6.60;;;;;;;-1.33;86.06;100764.81;130503;1295;22558;-85
2023/02/04 04:36:45;;;;;;;10.00;6.80;;;;;;;-1.33;85.99;100781.65;130485;1289;22698;-85
2023/02/04 04:39:46;;;;;;;11.20;7.50;;;;;;;-1.34;86.29;100788.79;130405;1293;23937;-84
2023/02/04 04:42:48;;;;;;;10.50;7.30;;;;;;;-1.34;86.11;100798.72;130705;1292;23329;-84
2023/02/04 04:45:50;;;;;;;12.00;8.10;;;;;;;-1.35;86.29;100811.79;130737;1288;25329;-84
2023/02/04 04:48:53;;;;;;;14.00;7.90;;;;;;;-1.37;86.26;100821.91;130587;1296;25374;-85
2023/02/04 04:51:54;;;;;;;12.20;8.20;;;;;;;-1.37;85.71;100831.65;130583;1294;24343;-85
2023/02/04 04:54:56;;;;;;;12.60;7.70;;;;;;;-1.38;85.23;100842.63;130654;1292;22566;-85
2023/02/04 04:58:00;;;;;;;12.80;8.00;;;;;;;-1.38;85.15;100862.92;130764;1292;24335;-84
2023/02/04 05:01:01;;;;;;;12.60;8.10;;;;;;;-1.38;85.11;100863.61;130498;1293;22682;-81
2023/02/04 05:04:04;;;;;;;12.10;7.70;;;;;;;-1.37;84.98;100877.82;131014;1289;22681;-84
2023/02/04 05:07:05;;;;;;;12.70;8.40;;;;;;;-1.37;85.10;100890.14;130548;1293;22567;-83
2023/02/04 05:10:09;;;;;;;10.30;7.80;;;;;;;-1.36;85.53;100901.00;130326;1295;24260;-82
2023/02/04 05:13:10;;;;;;;11.90;8.30;;;;;;;-1.36;85.00;100909.37;130653;1293;25421;-83
2023/02/04 05:16:12;;;;;;;11.30;8.30;;;;;;;-1.38;84.94;100922.95;130626;1288;22557;-83
2023/02/04 05:19:13;;;;;;;11.80;7.80;;;;;;;-1.40;84.67;100929.99;130478;1292;22702;-82
2023/02/04 05:22:14;;;;;;;9.80;7.70;;;;;;;-1.39;83.99;100938.13;130695;1295;22552;-83
2023/02/04 05:25:18;;;;;;;13.50;8.70;;;;;;;-1.39;83.90;100950.44;130663;1295;22556;-82
2023/02/04 05:28:18;;;;;;;11.50;7.80;;;;;;;-1.38;84.14;100970.02;130498;1292;22576;-82
2023/02/04 05:31:20;;;;;;;15.10;8.30;;;;;;;-1.38;84.35;100984.26;128199;1291;2949978;-83
2023/02/04 05:34:24;;;;;;;12.90;8.90;;;;;;;-1.39;84.14;100996.79;130458;1295;22672;-82
2023/02/04 05:37:25;;;;;;;9.90;7.20;;;;;;;-1.38;83.83;101006.80;130555;1286;24212;-82
2023/02/04 05:40:25;;;;;;;;;;;;;;;-1.38;83.32;101025.40;130581;1288;25418;-82
2023/02/04 05:43:28;;;;;;;9.40;7.50;;;;;;;-1.39;83.52;101034.27;130935;1292;22580;-82
2023/02/04 05:46:28;;;;;;;12.30;7.90;;;;;;;-1.41;83.33;101051.37;130704;1292;22556;-83
2023/02/04 05:49:30;;;;;;;13.10;9.00;;;;;;;-1.42;83.78;101060.10;130637;1291;22683;-82
2023/02/04 05:52:31;;;;;;;14.60;8.10;;;;;;;-1.42;84.03;101064.11;130445;1292;23017;-83
2023/02/04 05:55:32;;;;;;;12.30;8.50;;;;;;;-1.43;83.80;101071.29;130294;1292;22602;-82
2023/02/04 05:58:35;;;;;;;14.30;8.40;;;;;;;-1.43;84.11;101080.14;130913;1282;22572;-83
2023/02/04 06:01:41;;;;;;;10.90;7.70;;;;;;;-1.45;83.91;101091.48;131186;1293;22563;-84
2023/02/04 06:04:42;;;;;;;11.30;8.30;;;;;;;-1.47;84.13;101098.35;130822;1298;25255;-83
2023/02/04 06:07:48;;;;;;;11.80;7.50;;;;;;;-1.49;83.79;101103.27;130896;1293;25404;-82
2023/02/04 06:10:54;;;;;;;12.40;7.60;;;;;;;-1.51;83.79;101112.91;130733;1295;22669;-83
2023/02/04 06:13:56;;;;;;;11.70;7.70;;;;;;;-1.54;83.71;101128.29;130679;1280;24267;-82
2023/02/04 06:17:03;;;;;;;11.40;8.10;;;;;;;-1.56;84.40;101138.12;130505;1295;24231;-82
2023/02/04 06:20:10;;;;;;;11.10;7.70;;;;;;;-1.58;84.13;101149.99;130727;1292;22559;-84
2023/02/04 06:23:15;;;;;;;13.50;8.30;;;;;;;-1.59;84.52;101159.40;130646;1294;22567;-84
2023/02/04 06:26:17;;;;;;;13.40;8.30;;;;;;;-1.61;84.30;101171.48;131041;1291;22664;-83
2023/02/04 06:29:21;;;;;;;13.50;8.70;;;;;;;-1.63;84.80;101182.81;130718;1295;22539;-82
2023/02/04 06:32:23;;;;;;;11.90;8.20;;;;;;;-1.62;84.74;101197.73;131027;1286;22557;-82
2023/02/04 06:35:27;;;;;;;11.70;8.00;;;;;;;-1.62;84.60;101208.48;130997;1291;22566;-82
2023/02/04 06:38:32;;;;;;;12.90;7.70;;;;;;;-1.62;84.70;101215.77;131235;1289;22564;-83
2023/02/04 06:41:35;;;;;;;15.00;9.50;;;;;;;-1.62;84.71;101229.82;131206;1288;23306;-82
2023/02/04 06:44:38;;;;;;;16.20;8.50;;;;;;;-1.60;84.83;101243.77;131208;1288;22561;-81
2023/02/04 06:47:40;;;;;;;11.90;8.20;;;;;;;-1.55;84.65;101253.86;131045;1288;22725;-81
2023/02/04 06:50:42;;;;;;;12.90;9.30;;;;;;;-1.49;84.74;101270.09;131417;1286;23109;-83
2023/02/04 06:53:47;;;;;;;11.10;7.90;;;;;;;-1.43;84.97;101277.61;131110;1289;25277;-83
2023/02/04 06:56:51;;;;;;;10.50;7.60;;;;;;;-1.36;84.46;101288.98;131123;1295;22953;-82
2023/02/04 06:59:54;;;;;;;11.20;7.30;;;;;;;-1.30;84.12;101299.34;130597;1285;24231;-82
2023/02/04 07:03:14;;;;;;;11.20;7.10;;;;;;;-1.31;83.82;101312.24;131139;1286;22601;-82
2023/02/04 07:51:46;;;;;;;5.90;4.90;;;;;;;-0.63;81.92;101452.95;131050;1291;22643;-83
2023/02/04 07:54:46;;;;;;;6.60;4.40;;;;;;;-0.60;81.58;101458.77;130833;1295;24842;-84
2023/02/04 07:57:48;;;;;;;7.50;4.70;;;;;;;-0.53;81.77;101466.11;131121;1295;23063;-87
2023/02/04 08:00:51;;;;;;;7.70;4.40;;;;;;;-0.44;81.44;101467.30;130723;1295;25376;-85
2023/02/04 08:03:54;;;;;;;6.10;4.20;;;;;;;-0.36;81.12;101466.27;130656;1295;22558;-86
2023/02/04 08:06:55;;;;;;;6.70;4.00;;;;;;;-0.30;80.86;101460.65;130436;1301;25369;-84
2023/02/04 08:09:56;;;;;;;5.70;4.30;;;;;;;-0.26;80.68;101456.26;130405;1295;25278;-85
2023/02/04 08:12:56;;;;;;;5.70;3.70;;;;;;;-0.12;80.74;101464.77;130419;1295;22546;-86
2023/02/04 08:15:57;;;;;;;5.40;3.70;;;;;;;0.04;79.69;101478.14;130810;1291;22589;-83
2023/02/04 08:19:05;;;;;;;6.40;4.70;;;;;;;0.24;79.07;101478.52;131029;1292;24348;-83
2023/02/04 08:22:12;;;;;;;7.20;4.00;;;;;;;0.44;76.71;101486.48;130271;1279;25376;-81
2023/02/04 08:25:13;;;;;;;7.10;4.80;;;;;;;0.67;77.09;101480.40;130789;1291;22579;-83
2023/02/04 08:28:13;;;;;;;7.50;4.20;;;;;;;0.98;78.22;101492.37;130794;1295;24358;-83
2023/02/04 08:31:14;;;;;;;6.20;3.70;;;;;;;1.25;76.50;101497.40;130447;1295;23077;-81
2023/02/04 08:34:15;;;;;;;6.10;3.90;;;;;;;1.37;75.55;101497.16;130571;1292;25359;-82
2023/02/04 08:37:15;;;;;;;6.30;4.00;;;;;;;1.53;76.43;101495.52;130925;1288;22595;-84
2023/02/04 08:40:16;;;;;;;6.40;4.40;;;;;;;1.60;73.07;101489.93;131179;1292;22688;-83
2023/02/04 08:43:17;;;;;;;7.70;4.70;;;;;;;1.62;74.48;101496.81;131181;1294;23911;-83
2023/02/04 08:46:17;;;;;;;8.50;4.50;;;;;;;1.79;74.47;101501.73;131378;1295;22678;-84
2023/02/04 08:49:18;;;;;;;7.60;4.70;;;;;;;1.79;72.95;101507.30;131225;1293;23218;-83
2023/02/04 08:52:18;;;;;;;6.10;4.10;;;;;;;1.81;72.89;101504.27;131177;1292;24430;-85
2023/02/04 08:55:19;;;;;;;7.40;4.70;;;;;;;1.87;72.83;101509.38;131329;1293;23532;-83
2023/02/04 08:58:19;;;;;;;6.70;4.60;;;;;;;2.17;74.09;101519.73;131259;1295;22566;-85
2023/02/04 09:01:22;;;;;;;6.60;3.90;;;;;;;2.20;72.18;101526.19;131194;1295;24125;-84
2023/02/04 09:04:23;;;;;;;5.90;4.10;;;;;;;1.71;71.74;101529.18;130965;1293;22599;-82
2023/02/04 09:07:24;;;;;;;5.40;4.00;;;;;;;1.26;72.02;101536.91;130864;1292;22586;-85
2023/02/04 09:10:24;;;;;;;10.40;4.50;;;;;;;0.88;72.46;101541.13;130690;1296;22746;-85
2023/02/04 09:13:25;;;;;;;8.70;4.10;;;;;;;0.64;73.64;101547.05;130925;1296;22584;-85
2023/02/04 09:16:25;;;;;;;7.30;4.80;;;;;;;0.50;73.79;101550.66;130490;1289;24790;-86
2023/02/04 09:19:26;;;;;;;9.10;4.60;;;;;;;0.37;74.10;101549.44;130712;1293;25635;-85
2023/02/04 09:22:26;;;;;;;7.40;3.90;;;;;;;0.29;74.59;101562.71;130784;1280;25617;-84
2023/02/04 09:25:27;;;;;;;7.90;4.60;;;;;;;0.25;75.12;101561.98;131112;1294;24263;-84
2023/02/04 09:28:28;;;;;;;9.00;4.40;;;;;;;0.27;75.25;101571.32;130936;1298;23242;-85
2023/02/04 09:31:28;;;;;;;7.60;4.40;;;;;;;0.23;74.86;101576.35;131014;1292;26644;-83
2023/02/04 09:34:29;;;;;;;10.30;4.10;;;;;;;0.16;74.99;101577.69;130645;1301;22702;-83
2023/02/04 09:37:29;;;;;;;8.20;4.80;;;;;;;0.12;75.05;101585.02;130860;1286;23940;-81
2023/02/04 09:40:36;;;;;;;9.10;5.10;;;;;;;0.09;75.51;101591.05;131442;1285;24667;-84
2023/02/04 09:43:42;;;;;;;10.10;5.40;;;;;;;0.05;75.83;101592.94;131235;1300;22606;-84
2023/02/04 09:46:49;;;;;;;6.00;3.80;;;;;;;0.03;76.06;101596.69;131478;1295;22567;-85
2023/02/04 09:49:50;;;;;;;8.60;4.50;;;;;;;0.02;76.10;101594.84;131488;1295;24308;-84
2023/02/04 09:52:55;;;;;;;6.90;4.20;;;;;;;0.03;76.43;101594.45;131125;1292;23324;-85
2023/02/04 09:55:56;;;;;;;7.60;4.20;;;;;;;0.05;77.06;101597.30;131387;1293;24215;-87
2023/02/04 09:58:57;;;;;;;;;;;;;;;0.09;77.18;101596.08;131535;1293;24237;-84
2023/02/04 10:02:13;;;;;;;6.90;4.30;;;;;;;0.13;77.44;101592.95;131608;1296;25281;-84
2023/02/04 10:05:17;;;;;;;8.10;4.40;;;;;;;0.18;77.47;101591.52;131421;1295;22574;-85
2023/02/04 10:08:20;;;;;;;6.30;4.20;;;;;;;0.18;77.59;101599.69;131085;1292;22561;-85
2023/02/04 10:11:23;;;;;;;9.90;4.80;;;;;;;0.18;77.72;101603.52;131177;1293;22585;-86
2023/02/04 10:14:24;;;;;;;7.80;4.50;;;;;;;0.11;78.03;101613.57;131536;1293;25389;-85
2023/02/04 10:17:25;;;;;;;5.50;4.00;;;;;;;0.06;78.25;101611.54;131470;1295;23068;-83
2023/02/04 10:20:25;;;;;;;6.80;4.60;;;;;;;-0.02;78.14;101621.05;131193;1293;24243;-84
2023/02/04 10:23:26;;;;;;;7.80;5.10;;;;;;;-0.12;78.54;101622.53;131383;1296;22586;-84
2023/02/04 10:26:29;;;;;;;8.10;4.50;;;;;;;-0.18;78.98;101622.58;131282;1295;22591;-82
2023/02/04 10:29:29;;;;;;;7.40;4.50;;;;;;;-0.17;79.46;101623.77;131249;1293;22565;-83
2023/02/04 10:32:32;;;;;;;7.80;5.40;;;;;;;-0.08;79.63;101625.46;131218;1295;23950;-85
2023/02/04 10:35:44;;;;;;;13.50;6.70;;;;;;;0.11;80.10;101626.30;130894;1295;25297;-84
2023/02/04 10:38:58;;;;;;;11.10;6.00;;;;;;;0.36;80.00;101632.39;131195;1293;24410;-84
2023/02/04 10:42:00;;;;;;;9.30;4.90;;;;;;;0.56;79.63;101634.46;131173;1295;22588;-83
2023/02/04 10:45:00;;;;;;;9.90;5.60;;;;;;;0.62;78.69;101635.63;130633;1291;25329;-85
2023/02/04 10:48:01;;;;;;;6.50;4.60;;;;;;;0.68;78.97;101635.89;130589;1292;27021;-83
2023/02/04 10:51:02;;;;;;;12.20;4.20;;;;;;;0.75;78.75;101644.66;130464;1296;22679;-83
2023/02/04 10:54:29;;;;;;;5.10;3.40;;;;;;;0.81;77.28;101648.41;130376;1296;22564;-83
2023/02/04 10:57:34;;;;;;;5.30;3.90;;;;;;;0.79;77.22;101644.66;130785;1296;22619;-84
2023/02/04 11:00:35;;;;;;;4.80;3.40;;;;;;;0.88;77.20;101650.71;131233;1295;22775;-84
2023/02/04 11:03:37;;;;;;;7.20;5.00;;;;;;;1.00;76.29;101656.48;130997;1296;22607;-84
2023/02/04 11:06:38;;;;;;;10.80;4.70;;;;;;;1.06;76.48;101662.10;131157;1295;22733;-83
2023/02/04 11:09:43;;;;;;;6.80;4.60;;;;;;;1.11;75.96;101665.03;131083;1295;22567;-84
2023/02/04 11:12:52;;;;;;;9.00;4.70;;;;;;;1.18;76.40;101663.85;130968;1295;24046;-83
2023/02/04 11:16:10;;;;;;;10.50;4.30;;;;;;;1.23;76.27;101662.21;131201;1295;22569;-83
2023/02/04 11:19:16;;;;;;;5.30;3.60;;;;;;;1.13;75.32;101666.34;130978;1295;22627;-82
2023/02/04 11:22:41;;;;;;;6.20;3.20;;;;;;;0.99;74.88;101672.72;130905;1298;22580;-82
2023/02/04 11:25:42;;;;;;;7.90;3.20;;;;;;;0.79;74.40;101678.09;131108;1286;22574;-82
2023/02/04 11:28:50;;;;;;;;;;;;;;;0.64;74.21;101683.07;131023;1299;22793;-83
2023/02/04 11:31:51;;;;;;;7.00;3.10;;;;;;;0.51;74.94;101694.27;131261;1295;22581;-83
2023/02/04 11:34:54;;;;;;;5.90;3.70;;;;;;;0.45;74.52;101703.74;131306;1296;25404;-83
2023/02/04 11:37:56;;;;;;;8.50;3.50;;;;;;;0.41;74.54;101697.63;131385;1293;23946;-82
2023/02/04 11:40:58;;;;;;;8.70;3.80;;;;;;;0.43;74.53;101698.77;131064;1294;22604;-84
2023/02/04 11:44:02;;;;;;;6.20;2.70;;;;;;;0.52;74.60;101704.13;131285;1295;22642;-83
2023/02/04 11:47:08;;;;;;;4.40;2.80;;;;;;;0.70;73.22;101701.65;131209;1294;22569;-87
2023/02/04 11:50:24;;;;;;;4.00;2.60;;;;;;;0.65;72.79;101702.73;131318;1297;22673;-86
2023/02/04 11:53:32;;;;;;;6.60;2.80;;;;;;;0.55;72.68;101706.45;131133;1295;22559;-83
2023/02/04 11:56:33;;;;;;;3.90;2.70;;;;;;;0.46;72.79;101712.59;131223;1295;22609;-83
2023/02/04 11:59:34;;;;;;;5.60;2.40;;;;;;;0.37;71.95;101715.02;130968;1295;24048;-84
2023/02/04 12:02:46;;;;;;;7.40;4.20;;;;;;;0.28;72.11;101716.79;131114;1295;23318;-82
2023/02/04 12:05:48;;;;;;;9.60;6.00;;;;;;;0.27;72.73;101715.11;130754;1293;22686;-81
2023/02/04 12:08:49;;;;;;;5.50;3.20;;;;;;;0.23;70.52;101715.59;131183;1286;22559;-83
2023/02/04 12:11:55;;;;;;;8.10;2.80;;;;;;;0.26;70.31;101717.54;131001;1288;23370;-85
2023/02/04 12:15:04;;;;;;;6.30;3.20;;;;;;;0.24;69.11;101723.75;130529;1292;22550;-84
2023/02/04 12:18:11;;;;;;;3.80;2.20;;;;;;;0.16;69.80;101725.29;130672;1285;25354;-82
2023/02/04 12:21:13;;;;;;;8.20;3.00;;;;;;;0.08;70.01;101730.48;130991;1286;22574;-82
2023/02/04 12:24:13;;;;;;;4.70;2.60;;;;;;;0.10;70.62;101736.80;131074;1296;22597;-85
2023/02/04 12:27:14;;;;;;;4.00;2.80;;;;;;;0.23;71.00;101737.52;130845;1295;22688;-82
2023/02/04 12:30:17;;;;;;;9.60;4.70;;;;;;;0.26;70.23;101741.57;130927;1289;23476;-82
2023/02/04 12:33:18;;;;;;;10.20;4.90;;;;;;;0.23;70.67;101739.08;131007;1293;24355;-81
2023/02/04 12:36:19;;;;;;;8.50;4.50;;;;;;;0.21;70.38;101736.36;131077;1292;25370;-83
2023/02/04 12:39:19;;;;;;;7.80;4.00;;;;;;;0.20;69.23;101734.69;131183;1295;22536;-82
2023/02/04 12:42:20;;;;;;;7.10;2.90;;;;;;;0.32;69.75;101741.52;130958;1292;25378;-81
2023/02/04 12:45:21;;;;;;;6.90;2.70;;;;;;;0.38;68.93;101742.86;130751;1296;22550;-81
2023/02/04 12:48:22;;;;;;;4.60;2.30;;;;;;;0.38;69.50;101742.33;131131;1295;22753;-81
2023/02/04 12:51:22;;;;;;;6.10;2.60;;;;;;;0.39;69.19;101741.41;130903;1288;22709;-81
2023/02/04 12:54:23;;;;;;;3.70;2.50;;;;;;;0.42;69.29;101747.38;131156;1293;22680;-84
2023/02/04 12:57:24;;;;;;;;;;;;;;;0.44;68.66;101747.30;130945;1292;25303;-84
2023/02/04 13:00:26;;;;;;;2.70;1.80;;;;;;;0.56;69.35;101750.27;131066;1286;22646;-85
2023/02/04 13:03:26;;;;;;;5.90;2.80;;;;;;;0.77;70.00;101751.16;131096;1292;22625;-83
2023/02/04 13:06:27;;;;;;;3.60;2.50;;;;;;;0.85;69.55;101745.79;131137;1286;23427;-82
2023/02/04 13:09:28;;;;;;;5.70;3.20;;;;;;;0.92;68.52;101750.38;131163;1286;24222;-82
2023/02/04 13:12:28;;;;;;;7.00;3.40;;;;;;;1.05;68.43;101752.95;131169;1293;22571;-85
2023/02/04 13:15:29;;;;;;;7.70;3.20;;;;;;;1.18;68.66;101753.63;130927;1295;22585;-84
2023/02/04 13:18:29;;;;;;;8.80;3.80;;;;;;;1.29;69.32;101758.54;130968;1292;23292;-86
2023/02/04 13:21:30;;;;;;;7.10;3.00;;;;;;;1.40;68.02;101758.44;131111;1295;25392;-82
2023/02/04 13:24:30;;;;;;;4.90;2.30;;;;;;;1.33;66.72;101755.39;131017;1285;22742;-83
2023/02/04 13:27:31;;;;;;;11.60;3.60;;;;;;;1.27;66.68;101759.84;131331;1295;22614;-82
2023/02/04 13:30:32;;;;;;;5.80;3.20;;;;;;;1.31;67.24;101762.10;131023;1293;25325;-84
2023/02/04 13:33:33;;;;;;;5.60;3.10;;;;;;;1.23;65.60;101759.30;130997;1286;22664;-83
2023/02/04 13:36:33;;;;;;;3.40;2.60;;;;;;;1.25;65.71;101762.91;130825;1286;23918;-81
2023/02/04 13:39:34;;;;;;;4.20;2.60;;;;;;;1.26;63.87;101768.44;131086;1289;22650;-81
2023/02/04 13:42:34;;;;;;;4.10;2.30;;;;;;;1.28;62.57;101771.48;131334;1292;22583;-81
2023/02/04 13:45:35;;;;;;;4.60;2.80;;;;;;;1.23;63.53;101773.09;131079;1287;22581;-81
2023/02/04 13:48:35;;;;;;;6.50;3.20;;;;;;;1.16;65.17;101768.88;131170;1293;22610;-82
2023/02/04 13:51:36;;;;;;;5.90;3.10;;;;;;;1.06;65.25;101780.12;131241;1288;22585;-81
2023/02/04 13:54:37;;;;;;;4.90;2.80;;;;;;;0.91;64.03;101786.13;131141;1295;22604;-82
2023/02/04 13:57:37;;;;;;;6.10;2.30;;;;;;;0.73;64.89;101808.45;131232;1293;25393;-80
2023/02/04 14:00:38;;;;;;;3.90;2.20;;;;;;;0.34;67.63;101825.50;131516;1295;22594;-82
2023/02/04 14:03:39;;;;;;;4.40;2.30;;;;;;;-0.27;68.98;101834.04;131122;1287;22607;-81
2023/02/04 14:06:42;;;;;;;4.30;2.20;;;;;;;-0.64;70.55;101836.05;130963;1292;23701;-81
2023/02/04 14:09:43;;;;;;;4.40;2.10;;;;;;;-0.79;70.94;101816.95;131176;1292;22531;-84
2023/02/04 14:12:43;;;;;;;5.80;2.20;;;;;;;-0.88;69.84;101812.92;131332;1286;25419;-83
2023/02/04 14:15:44;;;;;;;5.90;4.20;;;;;;;-0.89;69.16;101809.83;131330;1289;22637;-84
2023/02/04 14:18:45;;;;;;;7.50;3.00;;;;;;;-0.86;68.65;101810.92;131056;1286;22747;-81
2023/02/04 14:21:46;;;;;;;5.30;2.60;;;;;;;-0.82;68.89;101814.96;131082;1292;22580;-81
2023/02/04 14:24:47;;;;;;;5.90;3.10;;;;;;;-0.77;69.25;101816.88;131349;1285;22794;-83
2023/02/04 14:27:50;;;;;;;25.90;10.80;;;;;;;-0.74;69.83;101821.46;131365;1288;22681;-80
2023/02/04 14:30:53;;;;;;;23.90;11.90;;;;;;;-0.69;70.21;101820.07;131308;1293;22659;-83
2023/02/04 14:33:55;;;;;;;8.10;4.50;;;;;;;-0.62;70.75;101816.17;131159;1292;24407;-81
2023/02/04 14:36:55;;;;;;;5.50;3.90;;;;;;;-0.55;70.96;101817.48;131273;1295;22574;-81
2023/02/04 14:39:56;;;;;;;5.10;3.50;;;;;;;-0.51;70.92;101814.90;131219;1285;22779;-81
2023/02/04 14:42:56;;;;;;;7.00;4.50;;;;;;;-0.50;71.17;101814.35;131305;1292;22587;-83
2023/02/04 14:45:57;;;;;;;10.90;5.40;;;;;;;-0.50;71.31;101812.09;131148;1289;22560;-84
2023/02/04 14:48:59;;;;;;;9.60;4.70;;;;;;;-0.49;71.53;101815.37;131226;1295;22560;-84
2023/02/04 14:52:00;;;;;;;6.00;4.00;;;;;;;-0.49;70.94;101812.76;130985;1289;22572;-82
2023/02/04 14:55:00;;;;;;;9.10;4.50;;;;;;;-0.48;70.63;101815.84;130899;1289;24811;-83